Kovar, Texas
Current Conditions -  °F | °C
As of 10:10 AM on Monday 22 Dec 2014 (Local Time) from K3T5 Reporting Station
Overcast Overcast  
Wind Chill: 63°   Ceiling: 1600
Heat Index: 63°   Visibility: 10mi
Dew Point: 57°   Wind: 10mph
Humidity: 81%   Direction: 230°SW
Pressure: 29.75"   Gusts: 20mph
Location:  29.7626°N, 97.1228°W
Report Text: K3T5 221610Z AUTO 23009G17KT 10SM OVC016 17/14 A2975 RMK AO2 T01720140
Loading
Personal Weather Stations






























Interactive Weather Map New forecast layout! Learn more

10-Day Weather Forecast

Advertisements
Track Severe Weather on mobile